sensor_id;sensor_type;location;lat;lon;timestamp;P1;durP1;ratioP1;P2;durP2;ratioP2
8584;SDS011;7180;52.742;11.420;2023-04-25T00:00:14;11.10;;;10.30;;
8584;SDS011;7180;52.742;11.420;2023-04-25T00:02:39;11.17;;;10.17;;
8584;SDS011;7180;52.742;11.420;2023-04-25T00:05:05;11.23;;;10.33;;
8584;SDS011;7180;52.742;11.420;2023-04-25T00:07:30;12.07;;;10.33;;
8584;SDS011;7180;52.742;11.420;2023-04-25T00:09:57;10.63;;;9.93;;
8584;SDS011;7180;52.742;11.420;2023-04-25T00:12:23;11.60;;;10.50;;
8584;SDS011;7180;52.742;11.420;2023-04-25T00:14:48;11.00;;;10.20;;
8584;SDS011;7180;52.742;11.420;2023-04-25T00:17:14;11.20;;;10.30;;
8584;SDS011;7180;52.742;11.420;2023-04-25T00:19:41;11.37;;;10.50;;
8584;SDS011;7180;52.742;11.420;2023-04-25T00:22:06;11.47;;;10.37;;
8584;SDS011;7180;52.742;11.420;2023-04-25T00:24:32;11.20;;;10.23;;
8584;SDS011;7180;52.742;11.420;2023-04-25T00:26:57;11.20;;;10.40;;
8584;SDS011;7180;52.742;11.420;2023-04-25T00:29:22;11.20;;;10.37;;
8584;SDS011;7180;52.742;11.420;2023-04-25T00:31:48;11.20;;;10.33;;
8584;SDS011;7180;52.742;11.420;2023-04-25T00:34:13;11.50;;;10.43;;
8584;SDS011;7180;52.742;11.420;2023-04-25T00:36:38;11.20;;;10.27;;
8584;SDS011;7180;52.742;11.420;2023-04-25T00:39:03;11.70;;;10.80;;
8584;SDS011;7180;52.742;11.420;2023-04-25T00:41:29;11.53;;;10.60;;
8584;SDS011;7180;52.742;11.420;2023-04-25T00:43:55;11.33;;;10.50;;
8584;SDS011;7180;52.742;11.420;2023-04-25T00:46:22;11.60;;;10.33;;
8584;SDS011;7180;52.742;11.420;2023-04-25T00:48:47;10.70;;;10.00;;
8584;SDS011;7180;52.742;11.420;2023-04-25T00:51:19;10.90;;;10.10;;
8584;SDS011;7180;52.742;11.420;2023-04-25T00:53:47;10.97;;;10.13;;
8584;SDS011;7180;52.742;11.420;2023-04-25T00:56:13;11.00;;;10.20;;
8584;SDS011;7180;52.742;11.420;2023-04-25T00:58:39;11.70;;;10.70;;
8584;SDS011;7180;52.742;11.420;2023-04-25T01:01:06;10.60;;;9.70;;
8584;SDS011;7180;52.742;11.420;2023-04-25T01:03:33;11.10;;;10.20;;
8584;SDS011;7180;52.742;11.420;2023-04-25T01:06:01;11.20;;;10.33;;
8584;SDS011;7180;52.742;11.420;2023-04-25T01:08:27;11.17;;;10.37;;
8584;SDS011;7180;52.742;11.420;2023-04-25T01:10:53;10.73;;;9.83;;
8584;SDS011;7180;52.742;11.420;2023-04-25T01:13:18;11.30;;;10.40;;
8584;SDS011;7180;52.742;11.420;2023-04-25T01:15:43;10.77;;;9.90;;
8584;SDS011;7180;52.742;11.420;2023-04-25T01:18:09;10.80;;;9.90;;
8584;SDS011;7180;52.742;11.420;2023-04-25T01:20:34;10.90;;;10.10;;
8584;SDS011;7180;52.742;11.420;2023-04-25T01:23:03;10.47;;;9.80;;
8584;SDS011;7180;52.742;11.420;2023-04-25T01:25:29;10.90;;;10.20;;
8584;SDS011;7180;52.742;11.420;2023-04-25T01:27:55;10.80;;;10.00;;
8584;SDS011;7180;52.742;11.420;2023-04-25T01:30:21;10.87;;;10.00;;
8584;SDS011;7180;52.742;11.420;2023-04-25T01:32:47;11.10;;;10.10;;
8584;SDS011;7180;52.742;11.420;2023-04-25T01:35:13;11.07;;;10.27;;
8584;SDS011;7180;52.742;11.420;2023-04-25T01:37:39;10.63;;;9.87;;
8584;SDS011;7180;52.742;11.420;2023-04-25T01:40:06;11.37;;;10.43;;
8584;SDS011;7180;52.742;11.420;2023-04-25T01:42:34;10.87;;;10.13;;
8584;SDS011;7180;52.742;11.420;2023-04-25T01:45:00;11.50;;;10.70;;
8584;SDS011;7180;52.742;11.420;2023-04-25T01:47:26;10.87;;;9.97;;
8584;SDS011;7180;52.742;11.420;2023-04-25T01:49:52;11.13;;;10.33;;
8584;SDS011;7180;52.742;11.420;2023-04-25T01:52:17;11.23;;;10.33;;
8584;SDS011;7180;52.742;11.420;2023-04-25T01:54:42;11.03;;;10.13;;
8584;SDS011;7180;52.742;11.420;2023-04-25T01:57:10;10.90;;;10.10;;
8584;SDS011;7180;52.742;11.420;2023-04-25T01:59:36;11.17;;;10.30;;
8584;SDS011;7180;52.742;11.420;2023-04-25T02:02:01;11.30;;;10.50;;
8584;SDS011;7180;52.742;11.420;2023-04-25T02:04:28;11.07;;;10.30;;
8584;SDS011;7180;52.742;11.420;2023-04-25T02:06:54;11.83;;;10.93;;
8584;SDS011;7180;52.742;11.420;2023-04-25T02:09:19;11.43;;;10.63;;
8584;SDS011;7180;52.742;11.420;2023-04-25T02:11:45;11.33;;;10.57;;
8584;SDS011;7180;52.742;11.420;2023-04-25T02:14:10;11.63;;;10.73;;
8584;SDS011;7180;52.742;11.420;2023-04-25T02:16:35;11.60;;;10.70;;
8584;SDS011;7180;52.742;11.420;2023-04-25T02:19:01;11.50;;;10.70;;
8584;SDS011;7180;52.742;11.420;2023-04-25T02:21:26;11.63;;;10.83;;
8584;SDS011;7180;52.742;11.420;2023-04-25T02:23:52;11.97;;;11.07;;
8584;SDS011;7180;52.742;11.420;2023-04-25T02:26:17;12.00;;;11.07;;
8584;SDS011;7180;52.742;11.420;2023-04-25T02:28:42;11.80;;;10.90;;
8584;SDS011;7180;52.742;11.420;2023-04-25T02:31:07;11.77;;;10.87;;
8584;SDS011;7180;52.742;11.420;2023-04-25T02:33:33;11.73;;;11.00;;
8584;SDS011;7180;52.742;11.420;2023-04-25T02:35:58;11.70;;;10.83;;
8584;SDS011;7180;52.742;11.420;2023-04-25T02:38:23;12.07;;;11.07;;
8584;SDS011;7180;52.742;11.420;2023-04-25T02:40:49;11.73;;;10.87;;
8584;SDS011;7180;52.742;11.420;2023-04-25T02:43:14;12.67;;;11.57;;
8584;SDS011;7180;52.742;11.420;2023-04-25T02:45:40;12.77;;;11.87;;
8584;SDS011;7180;52.742;11.420;2023-04-25T02:48:06;13.10;;;11.90;;
8584;SDS011;7180;52.742;11.420;2023-04-25T02:50:31;13.00;;;11.70;;
8584;SDS011;7180;52.742;11.420;2023-04-25T02:52:57;11.97;;;11.00;;
8584;SDS011;7180;52.742;11.420;2023-04-25T02:55:22;12.70;;;11.57;;
8584;SDS011;7180;52.742;11.420;2023-04-25T02:57:47;12.80;;;11.77;;
8584;SDS011;7180;52.742;11.420;2023-04-25T03:00:12;12.30;;;11.40;;
8584;SDS011;7180;52.742;11.420;2023-04-25T03:02:39;12.43;;;11.43;;
8584;SDS011;7180;52.742;11.420;2023-04-25T03:05:04;13.00;;;11.87;;
8584;SDS011;7180;52.742;11.420;2023-04-25T03:07:30;12.73;;;11.73;;
8584;SDS011;7180;52.742;11.420;2023-04-25T03:09:56;12.83;;;11.73;;
8584;SDS011;7180;52.742;11.420;2023-04-25T03:12:21;12.53;;;11.53;;
8584;SDS011;7180;52.742;11.420;2023-04-25T03:14:47;12.10;;;11.00;;
8584;SDS011;7180;52.742;11.420;2023-04-25T03:17:12;12.50;;;11.50;;
8584;SDS011;7180;52.742;11.420;2023-04-25T03:19:37;12.93;;;11.83;;
8584;SDS011;7180;52.742;11.420;2023-04-25T03:22:02;13.30;;;12.00;;
8584;SDS011;7180;52.742;11.420;2023-04-25T03:24:28;13.10;;;12.00;;
8584;SDS011;7180;52.742;11.420;2023-04-25T03:26:53;12.47;;;11.50;;
8584;SDS011;7180;52.742;11.420;2023-04-25T03:29:18;12.83;;;11.93;;
8584;SDS011;7180;52.742;11.420;2023-04-25T03:31:43;13.00;;;11.90;;
8584;SDS011;7180;52.742;11.420;2023-04-25T03:34:09;13.07;;;11.73;;
8584;SDS011;7180;52.742;11.420;2023-04-25T03:36:34;12.73;;;11.73;;
8584;SDS011;7180;52.742;11.420;2023-04-25T03:39:00;12.30;;;11.40;;
8584;SDS011;7180;52.742;11.420;2023-04-25T03:41:25;12.93;;;11.93;;
8584;SDS011;7180;52.742;11.420;2023-04-25T03:43:50;11.87;;;11.00;;
8584;SDS011;7180;52.742;11.420;2023-04-25T03:46:15;13.07;;;11.97;;
8584;SDS011;7180;52.742;11.420;2023-04-25T03:48:41;12.67;;;11.57;;
8584;SDS011;7180;52.742;11.420;2023-04-25T03:51:06;12.83;;;11.60;;
8584;SDS011;7180;52.742;11.420;2023-04-25T03:53:31;12.20;;;11.30;;
8584;SDS011;7180;52.742;11.420;2023-04-25T03:55:57;13.03;;;11.83;;
8584;SDS011;7180;52.742;11.420;2023-04-25T03:58:22;12.37;;;11.37;;
8584;SDS011;7180;52.742;11.420;2023-04-25T04:00:49;12.90;;;11.83;;
8584;SDS011;7180;52.742;11.420;2023-04-25T04:03:14;12.77;;;11.57;;
8584;SDS011;7180;52.742;11.420;2023-04-25T04:05:40;11.90;;;10.90;;
8584;SDS011;7180;52.742;11.420;2023-04-25T04:08:05;12.97;;;11.63;;
8584;SDS011;7180;52.742;11.420;2023-04-25T04:10:31;11.53;;;10.60;;
8584;SDS011;7180;52.742;11.420;2023-04-25T04:12:56;11.70;;;10.60;;
8584;SDS011;7180;52.742;11.420;2023-04-25T04:15:21;11.97;;;10.77;;
8584;SDS011;7180;52.742;11.420;2023-04-25T04:17:48;11.70;;;10.70;;
8584;SDS011;7180;52.742;11.420;2023-04-25T04:20:13;11.70;;;10.90;;
8584;SDS011;7180;52.742;11.420;2023-04-25T04:22:38;12.10;;;10.97;;
8584;SDS011;7180;52.742;11.420;2023-04-25T04:25:04;12.33;;;11.20;;
8584;SDS011;7180;52.742;11.420;2023-04-25T04:27:30;12.83;;;11.60;;
8584;SDS011;7180;52.742;11.420;2023-04-25T04:29:57;12.30;;;11.10;;
8584;SDS011;7180;52.742;11.420;2023-04-25T04:32:22;11.60;;;10.50;;
8584;SDS011;7180;52.742;11.420;2023-04-25T04:34:48;13.93;;;11.50;;
8584;SDS011;7180;52.742;11.420;2023-04-25T04:37:13;13.47;;;12.07;;
8584;SDS011;7180;52.742;11.420;2023-04-25T04:39:39;15.50;;;11.60;;
8584;SDS011;7180;52.742;11.420;2023-04-25T04:42:05;12.97;;;11.67;;
8584;SDS011;7180;52.742;11.420;2023-04-25T04:44:31;12.67;;;11.40;;
8584;SDS011;7180;52.742;11.420;2023-04-25T04:47:00;13.57;;;12.27;;
8584;SDS011;7180;52.742;11.420;2023-04-25T04:49:25;13.00;;;11.53;;
8584;SDS011;7180;52.742;11.420;2023-04-25T04:51:51;12.77;;;11.57;;
8584;SDS011;7180;52.742;11.420;2023-04-25T04:54:17;12.63;;;11.43;;
8584;SDS011;7180;52.742;11.420;2023-04-25T04:56:42;13.90;;;10.57;;
8584;SDS011;7180;52.742;11.420;2023-04-25T04:59:08;11.63;;;10.53;;
8584;SDS011;7180;52.742;11.420;2023-04-25T05:01:33;11.23;;;10.27;;
8584;SDS011;7180;52.742;11.420;2023-04-25T05:04:00;11.33;;;10.00;;
8584;SDS011;7180;52.742;11.420;2023-04-25T05:06:26;11.50;;;10.20;;
8584;SDS011;7180;52.742;11.420;2023-04-25T05:08:53;13.03;;;10.77;;
8584;SDS011;7180;52.742;11.420;2023-04-25T05:11:19;12.90;;;9.83;;
8584;SDS011;7180;52.742;11.420;2023-04-25T05:13:44;12.80;;;10.00;;
8584;SDS011;7180;52.742;11.420;2023-04-25T05:16:10;11.30;;;10.10;;
8584;SDS011;7180;52.742;11.420;2023-04-25T05:18:36;10.93;;;9.80;;
8584;SDS011;7180;52.742;11.420;2023-04-25T05:21:01;12.50;;;9.90;;
8584;SDS011;7180;52.742;11.420;2023-04-25T05:23:26;12.50;;;9.70;;
8584;SDS011;7180;52.742;11.420;2023-04-25T05:25:52;14.10;;;10.00;;
8584;SDS011;7180;52.742;11.420;2023-04-25T05:28:18;11.87;;;9.63;;
8584;SDS011;7180;52.742;11.420;2023-04-25T05:30:43;15.57;;;10.50;;
8584;SDS011;7180;52.742;11.420;2023-04-25T05:33:08;12.13;;;9.90;;
8584;SDS011;7180;52.742;11.420;2023-04-25T05:35:33;14.73;;;10.20;;
8584;SDS011;7180;52.742;11.420;2023-04-25T05:37:59;14.70;;;10.93;;
8584;SDS011;7180;52.742;11.420;2023-04-25T05:40:24;12.17;;;10.20;;
8584;SDS011;7180;52.742;11.420;2023-04-25T05:42:50;14.30;;;10.50;;
8584;SDS011;7180;52.742;11.420;2023-04-25T05:45:15;15.73;;;10.40;;
8584;SDS011;7180;52.742;11.420;2023-04-25T05:47:42;16.20;;;9.90;;
8584;SDS011;7180;52.742;11.420;2023-04-25T05:50:07;13.17;;;9.43;;
8584;SDS011;7180;52.742;11.420;2023-04-25T05:52:33;11.37;;;9.57;;
8584;SDS011;7180;52.742;11.420;2023-04-25T05:54:58;13.67;;;9.73;;
8584;SDS011;7180;52.742;11.420;2023-04-25T05:57:24;12.13;;;9.67;;
8584;SDS011;7180;52.742;11.420;2023-04-25T05:59:50;10.73;;;9.63;;
8584;SDS011;7180;52.742;11.420;2023-04-25T06:02:16;14.77;;;10.00;;
8584;SDS011;7180;52.742;11.420;2023-04-25T06:04:43;11.93;;;10.77;;
8584;SDS011;7180;52.742;11.420;2023-04-25T06:07:08;10.73;;;9.60;;
8584;SDS011;7180;52.742;11.420;2023-04-25T06:09:33;9.83;;;8.83;;
8584;SDS011;7180;52.742;11.420;2023-04-25T06:11:59;11.50;;;9.30;;
8584;SDS011;7180;52.742;11.420;2023-04-25T06:14:24;9.97;;;8.97;;
8584;SDS011;7180;52.742;11.420;2023-04-25T06:16:50;10.43;;;9.40;;
8584;SDS011;7180;52.742;11.420;2023-04-25T06:19:15;10.80;;;9.70;;
8584;SDS011;7180;52.742;11.420;2023-04-25T06:21:41;10.13;;;9.13;;
8584;SDS011;7180;52.742;11.420;2023-04-25T06:24:08;10.57;;;9.43;;
8584;SDS011;7180;52.742;11.420;2023-04-25T06:26:33;11.23;;;9.60;;
8584;SDS011;7180;52.742;11.420;2023-04-25T06:28:58;11.93;;;9.70;;
8584;SDS011;7180;52.742;11.420;2023-04-25T06:31:24;11.17;;;9.13;;
8584;SDS011;7180;52.742;11.420;2023-04-25T06:33:50;10.83;;;9.27;;
8584;SDS011;7180;52.742;11.420;2023-04-25T06:36:15;10.53;;;9.30;;
8584;SDS011;7180;52.742;11.420;2023-04-25T06:38:40;9.60;;;8.70;;
8584;SDS011;7180;52.742;11.420;2023-04-25T06:41:06;9.57;;;8.60;;
8584;SDS011;7180;52.742;11.420;2023-04-25T06:43:31;11.60;;;8.93;;
8584;SDS011;7180;52.742;11.420;2023-04-25T06:45:58;10.80;;;8.90;;
8584;SDS011;7180;52.742;11.420;2023-04-25T06:48:25;10.30;;;9.30;;
8584;SDS011;7180;52.742;11.420;2023-04-25T06:50:51;10.73;;;9.50;;
8584;SDS011;7180;52.742;11.420;2023-04-25T06:53:16;10.63;;;9.00;;
8584;SDS011;7180;52.742;11.420;2023-04-25T06:55:41;9.40;;;8.50;;
8584;SDS011;7180;52.742;11.420;2023-04-25T06:58:07;11.77;;;9.27;;
8584;SDS011;7180;52.742;11.420;2023-04-25T07:00:32;9.77;;;8.90;;
8584;SDS011;7180;52.742;11.420;2023-04-25T07:02:58;11.17;;;8.80;;
8584;SDS011;7180;52.742;11.420;2023-04-25T07:05:23;9.60;;;8.67;;
8584;SDS011;7180;52.742;11.420;2023-04-25T07:07:49;9.83;;;9.00;;
8584;SDS011;7180;52.742;11.420;2023-04-25T07:10:14;9.30;;;8.40;;
8584;SDS011;7180;52.742;11.420;2023-04-25T07:12:40;9.23;;;8.33;;
8584;SDS011;7180;52.742;11.420;2023-04-25T07:15:05;9.40;;;8.60;;
8584;SDS011;7180;52.742;11.420;2023-04-25T07:17:33;10.47;;;8.57;;
8584;SDS011;7180;52.742;11.420;2023-04-25T07:19:58;12.70;;;8.97;;
8584;SDS011;7180;52.742;11.420;2023-04-25T07:22:23;11.63;;;8.50;;
8584;SDS011;7180;52.742;11.420;2023-04-25T07:24:51;11.23;;;9.13;;
8584;SDS011;7180;52.742;11.420;2023-04-25T07:27:18;10.37;;;9.30;;
8584;SDS011;7180;52.742;11.420;2023-04-25T07:29:43;10.20;;;9.20;;
8584;SDS011;7180;52.742;11.420;2023-04-25T07:32:08;9.77;;;8.90;;
8584;SDS011;7180;52.742;11.420;2023-04-25T07:34:35;10.80;;;8.10;;
8584;SDS011;7180;52.742;11.420;2023-04-25T07:37:02;9.90;;;8.87;;
8584;SDS011;7180;52.742;11.420;2023-04-25T07:39:27;9.10;;;8.13;;
8584;SDS011;7180;52.742;11.420;2023-04-25T07:41:52;9.87;;;8.87;;
8584;SDS011;7180;52.742;11.420;2023-04-25T07:44:18;10.40;;;9.30;;
8584;SDS011;7180;52.742;11.420;2023-04-25T07:46:43;9.43;;;8.30;;
8584;SDS011;7180;52.742;11.420;2023-04-25T07:49:08;9.37;;;8.57;;
8584;SDS011;7180;52.742;11.420;2023-04-25T07:51:35;10.13;;;9.17;;
8584;SDS011;7180;52.742;11.420;2023-04-25T07:54:00;10.03;;;8.93;;
8584;SDS011;7180;52.742;11.420;2023-04-25T07:56:25;9.70;;;9.03;;
8584;SDS011;7180;52.742;11.420;2023-04-25T07:58:50;9.70;;;8.80;;
8584;SDS011;7180;52.742;11.420;2023-04-25T08:01:16;9.73;;;8.77;;
8584;SDS011;7180;52.742;11.420;2023-04-25T08:03:41;9.20;;;8.27;;
8584;SDS011;7180;52.742;11.420;2023-04-25T08:06:06;9.80;;;8.80;;
8584;SDS011;7180;52.742;11.420;2023-04-25T08:08:32;9.80;;;8.80;;
8584;SDS011;7180;52.742;11.420;2023-04-25T08:10:57;12.23;;;9.00;;
8584;SDS011;7180;52.742;11.420;2023-04-25T08:13:22;9.53;;;8.60;;
8584;SDS011;7180;52.742;11.420;2023-04-25T08:15:48;9.93;;;8.93;;
8584;SDS011;7180;52.742;11.420;2023-04-25T08:18:13;9.70;;;8.80;;
8584;SDS011;7180;52.742;11.420;2023-04-25T08:20:38;9.40;;;8.53;;
8584;SDS011;7180;52.742;11.420;2023-04-25T08:23:03;9.23;;;8.47;;
8584;SDS011;7180;52.742;11.420;2023-04-25T08:25:29;9.60;;;8.70;;
8584;SDS011;7180;52.742;11.420;2023-04-25T08:27:54;9.17;;;8.20;;
8584;SDS011;7180;52.742;11.420;2023-04-25T08:30:20;10.93;;;8.90;;
8584;SDS011;7180;52.742;11.420;2023-04-25T08:32:46;9.03;;;8.23;;
8584;SDS011;7180;52.742;11.420;2023-04-25T08:35:11;9.30;;;8.23;;
8584;SDS011;7180;52.742;11.420;2023-04-25T08:37:36;9.57;;;8.77;;
8584;SDS011;7180;52.742;11.420;2023-04-25T08:40:03;9.67;;;8.87;;
8584;SDS011;7180;52.742;11.420;2023-04-25T08:42:31;8.90;;;8.00;;
8584;SDS011;7180;52.742;11.420;2023-04-25T08:44:59;9.03;;;8.13;;
8584;SDS011;7180;52.742;11.420;2023-04-25T08:47:28;8.77;;;7.83;;
8584;SDS011;7180;52.742;11.420;2023-04-25T08:49:54;8.67;;;7.77;;
8584;SDS011;7180;52.742;11.420;2023-04-25T08:52:21;8.87;;;8.23;;
8584;SDS011;7180;52.742;11.420;2023-04-25T08:54:48;9.60;;;8.60;;
8584;SDS011;7180;52.742;11.420;2023-04-25T08:57:14;9.50;;;8.70;;
8584;SDS011;7180;52.742;11.420;2023-04-25T08:59:40;8.97;;;8.07;;
8584;SDS011;7180;52.742;11.420;2023-04-25T09:02:10;8.63;;;7.83;;
8584;SDS011;7180;52.742;11.420;2023-04-25T09:04:39;9.07;;;7.50;;
8584;SDS011;7180;52.742;11.420;2023-04-25T09:07:05;9.07;;;8.20;;
8584;SDS011;7180;52.742;11.420;2023-04-25T09:09:31;9.07;;;8.20;;
8584;SDS011;7180;52.742;11.420;2023-04-25T09:11:56;8.50;;;7.90;;
8584;SDS011;7180;52.742;11.420;2023-04-25T09:14:22;9.70;;;8.70;;
8584;SDS011;7180;52.742;11.420;2023-04-25T09:19:28;9.43;;;8.63;;
8584;SDS011;7180;52.742;11.420;2023-04-25T09:21:55;9.17;;;8.30;;
8584;SDS011;7180;52.742;11.420;2023-04-25T09:27:04;8.67;;;7.83;;
8584;SDS011;7180;52.742;11.420;2023-04-25T09:29:34;8.07;;;7.47;;
8584;SDS011;7180;52.742;11.420;2023-04-25T09:32:18;8.50;;;7.80;;
8584;SDS011;7180;52.742;11.420;2023-04-25T09:34:48;8.70;;;8.10;;
8584;SDS011;7180;52.742;11.420;2023-04-25T09:37:19;9.20;;;8.40;;
8584;SDS011;7180;52.742;11.420;2023-04-25T09:39:50;9.50;;;8.70;;
8584;SDS011;7180;52.742;11.420;2023-04-25T09:42:17;8.97;;;8.30;;
8584;SDS011;7180;52.742;11.420;2023-04-25T09:44:43;9.10;;;8.40;;
8584;SDS011;7180;52.742;11.420;2023-04-25T09:47:12;9.23;;;8.43;;
8584;SDS011;7180;52.742;11.420;2023-04-25T09:49:39;9.63;;;8.77;;
8584;SDS011;7180;52.742;11.420;2023-04-25T09:52:07;9.13;;;8.33;;
8584;SDS011;7180;52.742;11.420;2023-04-25T09:54:32;10.33;;;9.40;;
8584;SDS011;7180;52.742;11.420;2023-04-25T09:56:57;11.90;;;8.90;;
8584;SDS011;7180;52.742;11.420;2023-04-25T09:59:30;9.63;;;9.00;;
8584;SDS011;7180;52.742;11.420;2023-04-25T10:01:56;9.53;;;8.63;;
8584;SDS011;7180;52.742;11.420;2023-04-25T10:04:23;9.50;;;8.67;;
8584;SDS011;7180;52.742;11.420;2023-04-25T10:06:51;9.70;;;8.90;;
8584;SDS011;7180;52.742;11.420;2023-04-25T10:09:19;9.80;;;8.90;;
8584;SDS011;7180;52.742;11.420;2023-04-25T10:11:45;9.63;;;8.70;;
8584;SDS011;7180;52.742;11.420;2023-04-25T10:14:13;9.20;;;8.50;;
8584;SDS011;7180;52.742;11.420;2023-04-25T10:16:39;9.87;;;9.07;;
8584;SDS011;7180;52.742;11.420;2023-04-25T10:19:05;9.20;;;8.40;;
8584;SDS011;7180;52.742;11.420;2023-04-25T10:21:31;9.97;;;9.07;;
8584;SDS011;7180;52.742;11.420;2023-04-25T10:23:58;9.50;;;8.60;;
8584;SDS011;7180;52.742;11.420;2023-04-25T10:26:24;10.53;;;9.27;;
8584;SDS011;7180;52.742;11.420;2023-04-25T10:29:00;9.40;;;8.60;;
8584;SDS011;7180;52.742;11.420;2023-04-25T10:31:27;9.30;;;8.60;;
8584;SDS011;7180;52.742;11.420;2023-04-25T10:33:53;9.10;;;8.40;;
8584;SDS011;7180;52.742;11.420;2023-04-25T10:36:20;12.50;;;10.60;;
8584;SDS011;7180;52.742;11.420;2023-04-25T10:38:47;9.90;;;9.10;;
8584;SDS011;7180;52.742;11.420;2023-04-25T10:41:15;9.50;;;8.80;;
8584;SDS011;7180;52.742;11.420;2023-04-25T10:43:43;8.97;;;8.30;;
8584;SDS011;7180;52.742;11.420;2023-04-25T10:48:46;9.63;;;8.97;;
8584;SDS011;7180;52.742;11.420;2023-04-25T10:51:23;10.07;;;9.23;;
8584;SDS011;7180;52.742;11.420;2023-04-25T10:54:03;11.13;;;10.13;;
8584;SDS011;7180;52.742;11.420;2023-04-25T10:56:31;10.17;;;9.23;;
8584;SDS011;7180;52.742;11.420;2023-04-25T10:59:13;10.67;;;9.77;;
8584;SDS011;7180;52.742;11.420;2023-04-25T11:01:41;10.07;;;9.30;;
8584;SDS011;7180;52.742;11.420;2023-04-25T11:04:33;10.03;;;9.20;;
8584;SDS011;7180;52.742;11.420;2023-04-25T11:09:50;10.17;;;9.47;;
8584;SDS011;7180;52.742;11.420;2023-04-25T11:12:16;9.90;;;9.00;;
8584;SDS011;7180;52.742;11.420;2023-04-25T11:14:42;9.30;;;8.67;;
8584;SDS011;7180;52.742;11.420;2023-04-25T11:17:07;9.80;;;9.00;;
8584;SDS011;7180;52.742;11.420;2023-04-25T11:19:33;11.07;;;9.07;;
8584;SDS011;7180;52.742;11.420;2023-04-25T11:21:59;9.30;;;8.53;;
8584;SDS011;7180;52.742;11.420;2023-04-25T11:24:29;8.90;;;8.20;;
8584;SDS011;7180;52.742;11.420;2023-04-25T11:26:56;8.67;;;8.03;;
8584;SDS011;7180;52.742;11.420;2023-04-25T11:29:27;9.37;;;8.77;;
8584;SDS011;7180;52.742;11.420;2023-04-25T11:31:54;9.03;;;8.23;;
8584;SDS011;7180;52.742;11.420;2023-04-25T11:34:26;8.60;;;7.80;;
8584;SDS011;7180;52.742;11.420;2023-04-25T11:36:55;9.63;;;8.80;;
8584;SDS011;7180;52.742;11.420;2023-04-25T11:39:21;9.67;;;8.87;;
8584;SDS011;7180;52.742;11.420;2023-04-25T11:41:48;9.07;;;8.23;;
8584;SDS011;7180;52.742;11.420;2023-04-25T11:44:17;8.27;;;7.60;;
8584;SDS011;7180;52.742;11.420;2023-04-25T11:46:43;8.33;;;7.63;;
8584;SDS011;7180;52.742;11.420;2023-04-25T11:49:09;8.60;;;7.90;;
8584;SDS011;7180;52.742;11.420;2023-04-25T11:51:38;9.40;;;8.50;;
8584;SDS011;7180;52.742;11.420;2023-04-25T11:54:04;9.23;;;8.60;;
8584;SDS011;7180;52.742;11.420;2023-04-25T11:56:30;9.50;;;8.83;;
8584;SDS011;7180;52.742;11.420;2023-04-25T11:59:00;8.97;;;8.27;;
8584;SDS011;7180;52.742;11.420;2023-04-25T12:01:30;10.17;;;8.70;;
8584;SDS011;7180;52.742;11.420;2023-04-25T12:03:56;8.70;;;8.10;;
8584;SDS011;7180;52.742;11.420;2023-04-25T12:06:25;7.90;;;7.40;;
8584;SDS011;7180;52.742;11.420;2023-04-25T12:09:04;8.90;;;8.20;;
8584;SDS011;7180;52.742;11.420;2023-04-25T12:11:31;8.40;;;7.80;;
8584;SDS011;7180;52.742;11.420;2023-04-25T12:14:01;7.67;;;7.27;;
8584;SDS011;7180;52.742;11.420;2023-04-25T12:16:28;7.50;;;7.10;;
8584;SDS011;7180;52.742;11.420;2023-04-25T12:18:53;9.00;;;8.40;;
8584;SDS011;7180;52.742;11.420;2023-04-25T12:21:20;8.23;;;7.67;;
8584;SDS011;7180;52.742;11.420;2023-04-25T12:23:45;8.73;;;7.93;;
8584;SDS011;7180;52.742;11.420;2023-04-25T12:26:11;8.87;;;8.20;;
8584;SDS011;7180;52.742;11.420;2023-04-25T12:28:36;8.27;;;7.77;;
8584;SDS011;7180;52.742;11.420;2023-04-25T12:31:02;7.93;;;7.33;;
8584;SDS011;7180;52.742;11.420;2023-04-25T12:33:32;8.00;;;7.50;;
8584;SDS011;7180;52.742;11.420;2023-04-25T12:36:00;8.10;;;7.60;;
8584;SDS011;7180;52.742;11.420;2023-04-25T12:38:29;8.20;;;7.63;;
8584;SDS011;7180;52.742;11.420;2023-04-25T12:40:56;8.40;;;8.00;;
8584;SDS011;7180;52.742;11.420;2023-04-25T12:43:23;8.27;;;7.77;;
8584;SDS011;7180;52.742;11.420;2023-04-25T12:45:49;8.77;;;7.97;;
8584;SDS011;7180;52.742;11.420;2023-04-25T12:48:15;8.47;;;7.87;;
8584;SDS011;7180;52.742;11.420;2023-04-25T12:50:41;8.30;;;7.70;;
8584;SDS011;7180;52.742;11.420;2023-04-25T12:53:07;7.87;;;7.40;;
8584;SDS011;7180;52.742;11.420;2023-04-25T12:55:32;8.67;;;8.17;;
8584;SDS011;7180;52.742;11.420;2023-04-25T12:57:58;8.90;;;8.20;;
8584;SDS011;7180;52.742;11.420;2023-04-25T13:00:23;8.63;;;8.13;;
8584;SDS011;7180;52.742;11.420;2023-04-25T13:02:49;8.20;;;7.60;;
8584;SDS011;7180;52.742;11.420;2023-04-25T13:05:15;7.70;;;7.30;;
8584;SDS011;7180;52.742;11.420;2023-04-25T13:07:40;8.27;;;7.70;;
8584;SDS011;7180;52.742;11.420;2023-04-25T13:10:06;8.80;;;8.30;;
8584;SDS011;7180;52.742;11.420;2023-04-25T13:12:32;8.63;;;8.00;;
8584;SDS011;7180;52.742;11.420;2023-04-25T13:14:57;9.17;;;8.40;;
8584;SDS011;7180;52.742;11.420;2023-04-25T13:17:23;8.90;;;8.20;;
8584;SDS011;7180;52.742;11.420;2023-04-25T13:19:48;9.17;;;8.47;;
8584;SDS011;7180;52.742;11.420;2023-04-25T13:22:13;8.83;;;8.27;;
8584;SDS011;7180;52.742;11.420;2023-04-25T13:24:40;8.20;;;7.60;;
8584;SDS011;7180;52.742;11.420;2023-04-25T13:27:05;7.90;;;7.27;;
8584;SDS011;7180;52.742;11.420;2023-04-25T13:29:31;7.53;;;6.90;;
8584;SDS011;7180;52.742;11.420;2023-04-25T13:31:56;8.70;;;7.97;;
8584;SDS011;7180;52.742;11.420;2023-04-25T13:34:21;7.50;;;7.00;;
8584;SDS011;7180;52.742;11.420;2023-04-25T13:36:47;8.37;;;7.77;;
8584;SDS011;7180;52.742;11.420;2023-04-25T13:39:12;8.40;;;7.80;;
8584;SDS011;7180;52.742;11.420;2023-04-25T13:41:37;8.00;;;7.60;;
8584;SDS011;7180;52.742;11.420;2023-04-25T13:44:02;8.70;;;8.00;;
8584;SDS011;7180;52.742;11.420;2023-04-25T13:46:28;8.50;;;7.90;;
8584;SDS011;7180;52.742;11.420;2023-04-25T13:48:53;8.67;;;8.17;;
8584;SDS011;7180;52.742;11.420;2023-04-25T13:51:19;9.20;;;8.40;;
8584;SDS011;7180;52.742;11.420;2023-04-25T13:53:45;8.60;;;7.90;;
8584;SDS011;7180;52.742;11.420;2023-04-25T13:56:10;8.90;;;8.27;;
8584;SDS011;7180;52.742;11.420;2023-04-25T13:58:36;8.70;;;8.10;;
8584;SDS011;7180;52.742;11.420;2023-04-25T14:01:02;8.10;;;7.70;;
8584;SDS011;7180;52.742;11.420;2023-04-25T14:03:28;8.00;;;7.40;;
8584;SDS011;7180;52.742;11.420;2023-04-25T14:05:53;8.40;;;7.80;;
8584;SDS011;7180;52.742;11.420;2023-04-25T14:08:19;8.00;;;7.40;;
8584;SDS011;7180;52.742;11.420;2023-04-25T14:10:44;8.30;;;7.70;;
8584;SDS011;7180;52.742;11.420;2023-04-25T14:13:10;8.60;;;7.90;;
8584;SDS011;7180;52.742;11.420;2023-04-25T14:15:36;8.40;;;7.77;;
8584;SDS011;7180;52.742;11.420;2023-04-25T14:18:01;8.00;;;7.33;;
8584;SDS011;7180;52.742;11.420;2023-04-25T14:20:27;7.53;;;7.00;;
8584;SDS011;7180;52.742;11.420;2023-04-25T14:22:52;8.50;;;7.70;;
8584;SDS011;7180;52.742;11.420;2023-04-25T14:25:19;8.20;;;7.60;;
8584;SDS011;7180;52.742;11.420;2023-04-25T14:27:45;8.67;;;7.97;;
8584;SDS011;7180;52.742;11.420;2023-04-25T14:30:14;8.30;;;7.80;;
8584;SDS011;7180;52.742;11.420;2023-04-25T14:32:40;8.77;;;8.00;;
8584;SDS011;7180;52.742;11.420;2023-04-25T14:35:05;8.20;;;7.60;;
8584;SDS011;7180;52.742;11.420;2023-04-25T14:37:30;8.00;;;7.40;;
8584;SDS011;7180;52.742;11.420;2023-04-25T14:39:56;8.13;;;7.40;;
8584;SDS011;7180;52.742;11.420;2023-04-25T14:42:21;8.20;;;7.50;;
8584;SDS011;7180;52.742;11.420;2023-04-25T14:44:46;8.93;;;8.33;;
8584;SDS011;7180;52.742;11.420;2023-04-25T14:47:12;8.90;;;8.20;;
8584;SDS011;7180;52.742;11.420;2023-04-25T14:49:37;8.20;;;7.70;;
8584;SDS011;7180;52.742;11.420;2023-04-25T14:52:03;8.03;;;7.57;;